Time;durP1;ratioP1;P1;durP2;ratioP2;P2;SDS_P1;SDS_P2;PMS_P1;PMS_P2;Temp;Humidity;BMP_temperature;BMP_pressure;BME280_temperature;BME280_humidity;BME280_pressure;Samples;Min_cycle;Max_cycle;Signal;HPM_P1;HPM_P2
2020/12/08 00:00:11;;;;;;;12.05;10.30;;;;;;;;;;5078806;28;20177;-74
2020/12/08 00:02:37;;;;;;;10.07;9.07;;;;;;;;;;5072198;28;20179;-75
2020/12/08 00:05:04;;;;;;;10.75;9.75;;;;;;;;;;5089488;28;20186;-75
2020/12/08 00:07:30;;;;;;;9.85;8.85;;;;;;;;;;5089278;28;20671;-74
2020/12/08 00:09:56;;;;;;;10.82;9.77;;;;;;;;;;5079175;28;20190;-73
2020/12/08 00:12:23;;;;;;;10.68;9.68;;;;;;;;;;5077651;28;20183;-74
2020/12/08 00:14:49;;;;;;;10.90;9.90;;;;;;;;;;5080385;28;20191;-76
2020/12/08 00:17:15;;;;;;;10.75;9.65;;;;;;;;;;5080222;28;20206;-75
2020/12/08 00:19:41;;;;;;;10.27;9.38;;;;;;;;;;5069360;28;20656;-75
2020/12/08 00:22:08;;;;;;;10.30;9.30;;;;;;;;;;5073645;28;20645;-75
2020/12/08 00:24:34;;;;;;;10.48;9.57;;;;;;;;;;5077741;28;20180;-75
2020/12/08 00:27:00;;;;;;;10.55;9.55;;;;;;;;;;5089363;28;20175;-76
2020/12/08 00:29:26;;;;;;;9.93;8.93;;;;;;;;;;5088493;28;20203;-74
2020/12/08 00:31:52;;;;;;;9.90;9.00;;;;;;;;;;5089256;28;20582;-76
2020/12/08 00:34:18;;;;;;;10.55;9.45;;;;;;;;;;5072676;28;20201;-72
2020/12/08 00:36:44;;;;;;;10.82;9.82;;;;;;;;;;5086273;28;20587;-75
2020/12/08 00:39:10;;;;;;;9.82;8.93;;;;;;;;;;5089389;28;20596;-76
2020/12/08 00:41:36;;;;;;;9.80;8.90;;;;;;;;;;5092807;28;20179;-75
2020/12/08 00:44:02;;;;;;;10.00;9.05;;;;;;;;;;5084348;28;20173;-76
2020/12/08 00:46:28;;;;;;;10.05;9.15;;;;;;;;;;5092961;28;20180;-74
2020/12/08 00:48:54;;;;;;;9.73;8.82;;;;;;;;;;5093167;28;20219;-76
2020/12/08 00:51:20;;;;;;;10.90;9.85;;;;;;;;;;5092427;28;20182;-75
2020/12/08 00:53:46;;;;;;;9.52;8.63;;;;;;;;;;5092637;28;20176;-76
2020/12/08 00:56:13;;;;;;;10.10;9.10;;;;;;;;;;5090374;28;20199;-75
2020/12/08 00:58:39;;;;;;;9.57;8.77;;;;;;;;;;5072829;28;20199;-73
2020/12/08 01:01:05;;;;;;;10.40;9.00;;;;;;;;;;5088565;28;20536;-75
2020/12/08 01:03:33;;;;;;;10.00;9.00;;;;;;;;;;5092581;28;20176;-75
2020/12/08 01:05:59;;;;;;;10.50;9.48;;;;;;;;;;5092153;28;20176;-76
2020/12/08 01:08:25;;;;;;;10.43;9.40;;;;;;;;;;5083295;28;20293;-74
2020/12/08 01:10:53;;;;;;;10.65;9.30;;;;;;;;;;5096842;28;20175;-74
2020/12/08 01:13:19;;;;;;;10.80;9.77;;;;;;;;;;5081638;28;20183;-76
2020/12/08 01:15:45;;;;;;;10.57;9.57;;;;;;;;;;5092552;28;20171;-73
2020/12/08 01:18:11;;;;;;;11.68;10.48;;;;;;;;;;5092540;28;20203;-73
2020/12/08 01:20:37;;;;;;;10.25;9.15;;;;;;;;;;5092445;28;20186;-73
2020/12/08 01:23:03;;;;;;;9.75;8.85;;;;;;;;;;5092453;28;20213;-77
2020/12/08 01:25:29;;;;;;;10.75;9.75;;;;;;;;;;5089513;28;20172;-75
2020/12/08 01:27:55;;;;;;;10.15;9.15;;;;;;;;;;5072609;28;20196;-74
2020/12/08 01:30:21;;;;;;;10.00;9.05;;;;;;;;;;5077884;28;20183;-76
2020/12/08 01:32:47;;;;;;;11.60;10.48;;;;;;;;;;5076601;28;20187;-75
2020/12/08 01:35:13;;;;;;;11.63;9.88;;;;;;;;;;5089732;28;20172;-76
2020/12/08 01:37:39;;;;;;;11.05;9.95;;;;;;;;;;5092239;28;20245;-74
2020/12/08 01:40:06;;;;;;;10.77;9.77;;;;;;;;;;5092756;28;20199;-75
2020/12/08 01:42:32;;;;;;;11.35;10.15;;;;;;;;;;5096137;28;20172;-75
2020/12/08 01:44:58;;;;;;;11.48;9.32;;;;;;;;;;5095850;28;20260;-75
2020/12/08 01:47:25;;;;;;;11.10;10.05;;;;;;;;;;5096137;28;20596;-76
2020/12/08 01:49:51;;;;;;;10.60;9.60;;;;;;;;;;5096285;28;20195;-73
2020/12/08 01:52:18;;;;;;;11.27;10.18;;;;;;;;;;5095621;28;20248;-75
2020/12/08 01:54:45;;;;;;;12.02;10.82;;;;;;;;;;5095721;28;20222;-76
2020/12/08 01:57:11;;;;;;;10.93;9.88;;;;;;;;;;5095841;28;20222;-75
2020/12/08 01:59:37;;;;;;;11.43;10.23;;;;;;;;;;5096109;28;20188;-77
2020/12/08 02:02:04;;;;;;;11.80;10.63;;;;;;;;;;5095592;28;20254;-77
2020/12/08 02:04:30;;;;;;;11.10;9.90;;;;;;;;;;5095451;28;20220;-76
2020/12/08 02:06:56;;;;;;;10.55;9.55;;;;;;;;;;5094770;28;20180;-77
2020/12/08 02:09:22;;;;;;;11.50;10.40;;;;;;;;;;5095688;28;20560;-75
2020/12/08 02:11:48;;;;;;;11.73;10.63;;;;;;;;;;5077906;28;20176;-75
2020/12/08 02:14:14;;;;;;;10.68;9.57;;;;;;;;;;5091537;28;20266;-75
2020/12/08 02:16:40;;;;;;;10.60;9.60;;;;;;;;;;5076075;28;20195;-75
2020/12/08 02:19:06;;;;;;;11.10;10.00;;;;;;;;;;5083685;28;20245;-74
2020/12/08 02:21:34;;;;;;;10.75;9.75;;;;;;;;;;5094624;28;20179;-76
2020/12/08 02:24:00;;;;;;;10.88;9.88;;;;;;;;;;5082484;28;20309;-76
2020/12/08 02:26:26;;;;;;;11.43;10.27;;;;;;;;;;5079838;28;20658;-76
2020/12/08 02:28:54;;;;;;;10.02;9.05;;;;;;;;;;5095040;28;20556;-76
2020/12/08 02:31:20;;;;;;;10.75;9.65;;;;;;;;;;5094882;28;20222;-74
2020/12/08 02:33:46;;;;;;;12.25;11.00;;;;;;;;;;5082560;28;20529;-75
2020/12/08 02:36:12;;;;;;;10.35;9.27;;;;;;;;;;5085530;28;20207;-76
2020/12/08 02:38:38;;;;;;;10.15;9.25;;;;;;;;;;5091827;28;20207;-76
2020/12/08 02:41:04;;;;;;;10.60;9.60;;;;;;;;;;5075673;28;20176;-75
2020/12/08 02:43:31;;;;;;;10.90;9.90;;;;;;;;;;5083044;28;20171;-73
2020/12/08 02:45:58;;;;;;;10.65;9.65;;;;;;;;;;5084791;28;20180;-74
2020/12/08 02:48:24;;;;;;;10.25;9.30;;;;;;;;;;5094532;28;20204;-74
2020/12/08 02:50:50;;;;;;;10.45;9.45;;;;;;;;;;5088073;28;20180;-77
2020/12/08 02:53:16;;;;;;;10.65;9.65;;;;;;;;;;5089587;28;20213;-73
2020/12/08 02:55:45;;;;;;;9.93;8.95;;;;;;;;;;5094499;28;20167;-75
2020/12/08 02:58:11;;;;;;;12.52;9.85;;;;;;;;;;5094296;28;20206;-75
2020/12/08 03:00:37;;;;;;;10.65;9.55;;;;;;;;;;5093700;28;20183;-75
2020/12/08 03:03:03;;;;;;;10.80;9.80;;;;;;;;;;5081542;28;20176;-73
2020/12/08 03:05:29;;;;;;;10.77;9.68;;;;;;;;;;5079193;28;20167;-76
2020/12/08 03:07:55;;;;;;;11.43;10.25;;;;;;;;;;5093023;28;20271;-75
2020/12/08 03:10:21;;;;;;;10.77;9.77;;;;;;;;;;5092760;28;20648;-75
2020/12/08 03:12:47;;;;;;;11.25;10.10;;;;;;;;;;5094342;28;20532;-75
2020/12/08 03:15:13;;;;;;;10.52;9.52;;;;;;;;;;5082655;28;20184;-75
2020/12/08 03:17:40;;;;;;;10.27;9.27;;;;;;;;;;5074061;28;20341;-74
2020/12/08 03:20:06;;;;;;;10.70;9.48;;;;;;;;;;5091105;28;20536;-74
2020/12/08 03:22:32;;;;;;;10.10;9.15;;;;;;;;;;5086050;28;20201;-75
2020/12/08 03:24:58;;;;;;;10.23;9.25;;;;;;;;;;5076314;28;20175;-72
2020/12/08 03:27:24;;;;;;;10.82;9.82;;;;;;;;;;5094311;28;20181;-73
2020/12/08 03:29:50;;;;;;;10.13;9.13;;;;;;;;;;5093488;28;20199;-73
2020/12/08 03:32:16;;;;;;;10.35;9.25;;;;;;;;;;5080600;28;20260;-75
2020/12/08 03:34:42;;;;;;;11.00;9.90;;;;;;;;;;5087090;28;20187;-73
2020/12/08 03:37:08;;;;;;;12.32;9.63;;;;;;;;;;5088868;28;20210;-76
2020/12/08 03:39:34;;;;;;;12.45;11.15;;;;;;;;;;5082753;28;20199;-74
2020/12/08 03:42:01;;;;;;;11.52;10.43;;;;;;;;;;5085044;28;20186;-71
2020/12/08 03:44:28;;;;;;;10.27;9.38;;;;;;;;;;5080463;28;20176;-73
2020/12/08 03:46:56;;;;;;;11.35;10.35;;;;;;;;;;5093089;28;20274;-75
2020/12/08 03:49:26;;;;;;;10.55;9.65;;;;;;;;;;5082639;28;20211;-75
2020/12/08 03:51:52;;;;;;;10.40;9.40;;;;;;;;;;5093654;28;20171;-74
2020/12/08 03:54:18;;;;;;;10.70;9.70;;;;;;;;;;5093222;28;20175;-75
2020/12/08 03:56:45;;;;;;;10.57;9.48;;;;;;;;;;5092059;28;20206;-74
2020/12/08 03:59:16;;;;;;;10.57;9.57;;;;;;;;;;5073254;28;20238;-76
2020/12/08 04:01:42;;;;;;;10.77;9.73;;;;;;;;;;5084351;28;20179;-75
2020/12/08 04:04:08;;;;;;;10.38;9.48;;;;;;;;;;5092443;28;20171;-77
2020/12/08 04:06:34;;;;;;;11.88;10.73;;;;;;;;;;5085965;28;20184;-74
2020/12/08 04:09:00;;;;;;;10.70;9.60;;;;;;;;;;5076370;28;20265;-76
2020/12/08 04:11:26;;;;;;;11.20;10.10;;;;;;;;;;5102345;28;20194;-75
2020/12/08 04:13:52;;;;;;;10.85;9.85;;;;;;;;;;5091526;28;20186;-73
2020/12/08 04:16:18;;;;;;;11.40;10.20;;;;;;;;;;5081251;28;20195;-75
2020/12/08 04:18:44;;;;;;;12.35;11.15;;;;;;;;;;5073087;28;20270;-74
2020/12/08 04:21:10;;;;;;;10.68;9.57;;;;;;;;;;5087410;28;20218;-77
2020/12/08 04:23:36;;;;;;;12.30;11.18;;;;;;;;;;5091626;28;20175;-73
2020/12/08 04:26:05;;;;;;;10.68;9.65;;;;;;;;;;5073161;28;20308;-74
2020/12/08 04:28:31;;;;;;;10.93;9.93;;;;;;;;;;5085228;28;20195;-73
2020/12/08 04:30:57;;;;;;;10.35;9.45;;;;;;;;;;5090189;28;20179;-74
2020/12/08 04:33:23;;;;;;;11.40;10.20;;;;;;;;;;5093149;28;20171;-74
2020/12/08 04:35:49;;;;;;;10.57;9.50;;;;;;;;;;5088093;28;20172;-73
2020/12/08 04:38:15;;;;;;;11.23;10.20;;;;;;;;;;5092832;28;20211;-73
2020/12/08 04:40:47;;;;;;;11.50;10.40;;;;;;;;;;5092529;28;20506;-75
2020/12/08 04:43:13;;;;;;;10.27;9.32;;;;;;;;;;5093022;28;20182;-76
2020/12/08 04:45:39;;;;;;;10.82;9.85;;;;;;;;;;5092671;28;20528;-76
2020/12/08 04:48:05;;;;;;;11.98;10.85;;;;;;;;;;5077495;28;20232;-74
2020/12/08 04:50:31;;;;;;;11.38;10.25;;;;;;;;;;5077988;28;20175;-76
2020/12/08 04:52:58;;;;;;;11.70;10.60;;;;;;;;;;5086635;28;20186;-74
2020/12/08 04:55:24;;;;;;;12.23;10.98;;;;;;;;;;5092747;28;20191;-73
2020/12/08 04:57:50;;;;;;;11.75;10.55;;;;;;;;;;5092782;28;20266;-76
2020/12/08 05:00:16;;;;;;;15.73;11.80;;;;;;;;;;5092472;28;20175;-75
2020/12/08 05:02:46;;;;;;;11.93;10.77;;;;;;;;;;5093175;28;20172;-74
2020/12/08 05:05:12;;;;;;;12.85;11.60;;;;;;;;;;5091475;28;20183;-75
2020/12/08 05:07:38;;;;;;;12.82;11.52;;;;;;;;;;5093059;28;20184;-74
2020/12/08 05:10:04;;;;;;;12.77;11.38;;;;;;;;;;5086659;28;20577;-76
2020/12/08 05:12:30;;;;;;;12.88;11.65;;;;;;;;;;5074272;28;20529;-75
2020/12/08 05:14:56;;;;;;;13.07;11.77;;;;;;;;;;5093575;28;20172;-74
2020/12/08 05:17:23;;;;;;;13.18;11.50;;;;;;;;;;5096330;28;20199;-74
2020/12/08 05:20:00;;;;;;;13.30;11.90;;;;;;;;;;5080745;28;20192;-73
2020/12/08 05:22:26;;;;;;;13.95;12.38;;;;;;;;;;5087370;28;20540;-74
2020/12/08 05:24:52;;;;;;;15.70;12.90;;;;;;;;;;5096081;28;20164;-75
2020/12/08 05:27:19;;;;;;;13.70;11.82;;;;;;;;;;5096699;28;20183;-75
2020/12/08 05:29:45;;;;;;;26.33;11.30;;;;;;;;;;5093351;28;20276;-75
2020/12/08 05:32:24;;;;;;;16.33;13.73;;;;;;;;;;5094758;28;20651;-75
2020/12/08 05:34:53;;;;;;;14.48;12.73;;;;;;;;;;5077136;28;20514;-75
2020/12/08 05:37:20;;;;;;;14.10;12.70;;;;;;;;;;5088162;28;20549;-76
2020/12/08 05:39:47;;;;;;;13.60;12.20;;;;;;;;;;5097608;28;20606;-73
2020/12/08 05:42:17;;;;;;;14.10;12.70;;;;;;;;;;5091290;28;20180;-73
2020/12/08 05:44:46;;;;;;;14.45;12.88;;;;;;;;;;5076056;28;20237;-74
2020/12/08 05:47:16;;;;;;;12.20;11.00;;;;;;;;;;5089124;28;20203;-74
2020/12/08 05:49:42;;;;;;;13.60;12.20;;;;;;;;;;5091133;28;20572;-74
2020/12/08 05:52:10;;;;;;;14.00;12.60;;;;;;;;;;5094857;28;20198;-74
2020/12/08 05:54:36;;;;;;;14.48;12.98;;;;;;;;;;5092968;28;20186;-76
2020/12/08 05:57:13;;;;;;;15.63;13.15;;;;;;;;;;5094901;28;20227;-74
2020/12/08 05:59:39;;;;;;;14.65;13.02;;;;;;;;;;5094144;28;20674;-75
2020/12/08 06:02:05;;;;;;;18.02;14.98;;;;;;;;;;5082022;28;20180;-76
2020/12/08 06:04:43;;;;;;;16.30;14.32;;;;;;;;;;5081435;28;20225;-74
2020/12/08 06:07:09;;;;;;;15.85;13.68;;;;;;;;;;5095331;28;20182;-74
2020/12/08 06:09:35;;;;;;;16.30;12.93;;;;;;;;;;5095283;28;20570;-74
2020/12/08 06:12:02;;;;;;;15.20;13.50;;;;;;;;;;5094090;28;20248;-76
2020/12/08 06:14:37;;;;;;;17.83;14.30;;;;;;;;;;5093231;28;20182;-75
2020/12/08 06:17:07;;;;;;;18.63;14.70;;;;;;;;;;5086279;28;20205;-76
2020/12/08 06:19:36;;;;;;;19.33;14.40;;;;;;;;;;5095198;28;20191;-77
2020/12/08 06:22:12;;;;;;;15.65;13.88;;;;;;;;;;5086696;28;20175;-76
2020/12/08 06:24:48;;;;;;;17.58;14.27;;;;;;;;;;5092382;28;20516;-76
2020/12/08 06:27:18;;;;;;;18.90;14.60;;;;;;;;;;5087573;28;20191;-77
2020/12/08 06:29:51;;;;;;;19.25;15.85;;;;;;;;;;5085840;28;20203;-72
2020/12/08 06:32:23;;;;;;;17.55;14.50;;;;;;;;;;5087584;28;20263;-73
2020/12/08 06:34:49;;;;;;;18.55;15.40;;;;;;;;;;5094506;28;20198;-74
2020/12/08 06:37:15;;;;;;;18.48;14.52;;;;;;;;;;5092234;28;20195;-76
2020/12/08 06:39:41;;;;;;;24.98;16.10;;;;;;;;;;5094673;28;20198;-76
2020/12/08 06:42:14;;;;;;;16.23;14.52;;;;;;;;;;5094837;28;20250;-74
2020/12/08 06:44:40;;;;;;;20.08;15.27;;;;;;;;;;5093861;28;20490;-76
2020/12/08 06:47:06;;;;;;;19.15;15.50;;;;;;;;;;5090741;28;20179;-76
2020/12/08 06:49:36;;;;;;;18.70;15.40;;;;;;;;;;5081139;28;20200;-75
2020/12/08 06:52:02;;;;;;;20.48;16.10;;;;;;;;;;5094268;28;20175;-75
2020/12/08 06:54:29;;;;;;;17.67;13.77;;;;;;;;;;5094344;28;20179;-72
2020/12/08 06:57:01;;;;;;;20.20;14.98;;;;;;;;;;5094396;28;20195;-73
2020/12/08 06:59:28;;;;;;;15.25;13.50;;;;;;;;;;5094528;28;20245;-74
2020/12/08 07:01:54;;;;;;;18.10;14.88;;;;;;;;;;5094344;28;20175;-75
2020/12/08 07:04:21;;;;;;;17.08;13.85;;;;;;;;;;5094243;28;20224;-74
2020/12/08 07:06:48;;;;;;;17.10;14.93;;;;;;;;;;5094454;28;20513;-73
2020/12/08 07:09:14;;;;;;;18.10;14.45;;;;;;;;;;5094912;28;20636;-73
2020/12/08 07:11:40;;;;;;;17.10;14.93;;;;;;;;;;5101329;28;20252;-79
2020/12/08 07:14:07;;;;;;;25.02;15.85;;;;;;;;;;5091363;28;20182;-73
2020/12/08 07:16:36;;;;;;;18.30;15.40;;;;;;;;;;5090784;28;20636;-75
2020/12/08 07:19:06;;;;;;;21.52;15.70;;;;;;;;;;5075803;28;20188;-75
2020/12/08 07:21:33;;;;;;;16.90;14.68;;;;;;;;;;5082047;28;20224;-75
2020/12/08 07:23:59;;;;;;;21.95;16.30;;;;;;;;;;5094096;28;20175;-74
2020/12/08 07:26:25;;;;;;;19.88;15.63;;;;;;;;;;5094306;28;20647;-78
2020/12/08 07:28:52;;;;;;;22.65;17.20;;;;;;;;;;5094287;28;20195;-77
2020/12/08 07:31:23;;;;;;;24.75;19.50;;;;;;;;;;5093971;28;20743;-75
2020/12/08 07:33:49;;;;;;;19.58;14.38;;;;;;;;;;5088738;28;20318;-77
2020/12/08 07:36:21;;;;;;;21.05;16.42;;;;;;;;;;5073724;28;20177;-76
2020/12/08 07:38:50;;;;;;;16.98;15.18;;;;;;;;;;5073524;28;20271;-74
2020/12/08 07:41:23;;;;;;;15.93;14.23;;;;;;;;;;5074405;28;20633;-75
2020/12/08 07:43:50;;;;;;;15.95;14.25;;;;;;;;;;5073929;28;20262;-76
2020/12/08 07:46:25;;;;;;;18.30;15.43;;;;;;;;;;5076442;28;20225;-75
2020/12/08 07:49:06;;;;;;;19.40;15.15;;;;;;;;;;5073127;28;20275;-76
2020/12/08 07:51:33;;;;;;;17.17;13.73;;;;;;;;;;5082469;28;20182;-74
2020/12/08 07:54:02;;;;;;;16.10;14.32;;;;;;;;;;5086437;28;20215;-77
2020/12/08 07:56:29;;;;;;;19.15;12.85;;;;;;;;;;5089196;28;20227;-76
2020/12/08 07:58:55;;;;;;;17.40;13.90;;;;;;;;;;5089841;28;20249;-74
2020/12/08 08:01:22;;;;;;;18.27;13.13;;;;;;;;;;5089537;28;20175;-74
2020/12/08 08:03:48;;;;;;;16.95;13.90;;;;;;;;;;5089582;28;20171;-76
2020/12/08 08:06:15;;;;;;;20.60;13.80;;;;;;;;;;5089236;28;20207;-76
2020/12/08 08:08:41;;;;;;;14.60;12.70;;;;;;;;;;5083042;28;20208;-75
2020/12/08 08:11:07;;;;;;;15.23;13.00;;;;;;;;;;5082043;28;20252;-74
2020/12/08 08:13:33;;;;;;;15.65;13.55;;;;;;;;;;5079561;28;20188;-73
2020/12/08 08:16:00;;;;;;;14.55;12.63;;;;;;;;;;5073488;28;20172;-74
2020/12/08 08:18:26;;;;;;;15.73;13.00;;;;;;;;;;5084516;28;20215;-75
2020/12/08 08:20:52;;;;;;;15.75;13.43;;;;;;;;;;5077723;28;20176;-75
2020/12/08 08:23:18;;;;;;;16.30;13.60;;;;;;;;;;5084874;28;20207;-76
2020/12/08 08:25:44;;;;;;;15.25;13.02;;;;;;;;;;5073317;28;20537;-73
2020/12/08 08:28:10;;;;;;;14.82;13.20;;;;;;;;;;5073435;28;20263;-75
2020/12/08 08:30:36;;;;;;;14.48;12.95;;;;;;;;;;5089353;28;20185;-74
2020/12/08 08:33:02;;;;;;;13.85;12.40;;;;;;;;;;5089126;28;20175;-76
2020/12/08 08:35:29;;;;;;;14.65;13.05;;;;;;;;;;5088390;28;20529;-75
2020/12/08 08:37:55;;;;;;;13.98;12.48;;;;;;;;;;5088854;28;20211;-75
2020/12/08 08:40:22;;;;;;;15.65;13.05;;;;;;;;;;5089200;28;20171;-72
2020/12/08 08:42:48;;;;;;;16.30;13.43;;;;;;;;;;5089009;28;20219;-73
2020/12/08 08:45:14;;;;;;;14.50;12.75;;;;;;;;;;5075866;28;20179;-75
2020/12/08 08:47:40;;;;;;;19.85;13.23;;;;;;;;;;5089501;28;20186;-75
2020/12/08 08:50:06;;;;;;;14.43;12.82;;;;;;;;;;5088814;28;20213;-75
2020/12/08 08:52:33;;;;;;;18.88;13.40;;;;;;;;;;5084318;28;20578;-76
2020/12/08 08:54:59;;;;;;;15.55;13.00;;;;;;;;;;5092232;28;20287;-74
2020/12/08 08:57:25;;;;;;;17.15;14.27;;;;;;;;;;5080758;28;20199;-74
2020/12/08 08:59:52;;;;;;;16.55;12.88;;;;;;;;;;5088442;28;20203;-75
2020/12/08 09:02:18;;;;;;;15.45;12.88;;;;;;;;;;5092771;28;20203;-75
2020/12/08 09:04:44;;;;;;;14.35;12.85;;;;;;;;;;5091636;28;20183;-77
2020/12/08 09:07:10;;;;;;;14.10;12.70;;;;;;;;;;5092774;28;20179;-75
2020/12/08 09:09:36;;;;;;;16.00;13.85;;;;;;;;;;5094996;28;20237;-76
2020/12/08 09:12:02;;;;;;;15.25;13.65;;;;;;;;;;5086237;28;20192;-74
2020/12/08 09:14:30;;;;;;;14.48;12.75;;;;;;;;;;5085015;28;20542;-73
2020/12/08 09:16:56;;;;;;;16.23;13.88;;;;;;;;;;5078345;28;20691;-75
2020/12/08 09:19:22;;;;;;;14.60;13.10;;;;;;;;;;5091001;28;20226;-76
2020/12/08 09:21:55;;;;;;;14.13;12.63;;;;;;;;;;5092717;28;20182;-74
2020/12/08 09:24:21;;;;;;;16.02;13.32;;;;;;;;;;5091837;28;20262;-73
2020/12/08 09:26:48;;;;;;;14.00;12.50;;;;;;;;;;5092548;28;20190;-74
2020/12/08 09:29:14;;;;;;;17.35;13.18;;;;;;;;;;5092266;28;20556;-75
2020/12/08 09:31:41;;;;;;;20.45;13.65;;;;;;;;;;5086890;28;20218;-74
2020/12/08 09:34:08;;;;;;;14.50;12.75;;;;;;;;;;5087947;28;20183;-73
2020/12/08 09:36:34;;;;;;;14.05;12.55;;;;;;;;;;5090063;28;20199;-74
2020/12/08 09:39:00;;;;;;;14.77;13.23;;;;;;;;;;5091668;28;20191;-75
2020/12/08 09:41:26;;;;;;;14.90;13.30;;;;;;;;;;5086026;28;20262;-73
2020/12/08 09:43:52;;;;;;;15.77;13.13;;;;;;;;;;5080558;28;20182;-76
2020/12/08 09:46:18;;;;;;;17.10;13.80;;;;;;;;;;5090802;28;20172;-75
2020/12/08 09:48:45;;;;;;;14.40;12.90;;;;;;;;;;5083300;28;20195;-76
2020/12/08 09:51:11;;;;;;;15.55;13.85;;;;;;;;;;5092899;28;20575;-75
2020/12/08 09:53:37;;;;;;;14.75;12.65;;;;;;;;;;5093542;28;20266;-75
2020/12/08 09:56:03;;;;;;;18.13;14.25;;;;;;;;;;5092011;28;20188;-75
2020/12/08 09:58:29;;;;;;;15.57;13.88;;;;;;;;;;5084529;28;20231;-75
2020/12/08 10:00:55;;;;;;;17.58;14.10;;;;;;;;;;5090293;28;20207;-74
2020/12/08 10:03:21;;;;;;;17.85;15.10;;;;;;;;;;5091734;28;20262;-75
2020/12/08 10:05:47;;;;;;;15.15;13.55;;;;;;;;;;5091466;28;20183;-75
2020/12/08 10:08:13;;;;;;;15.82;13.48;;;;;;;;;;5090270;28;20322;-75
2020/12/08 10:10:39;;;;;;;15.15;13.55;;;;;;;;;;5103359;28;20224;-73
2020/12/08 10:13:05;;;;;;;15.82;14.15;;;;;;;;;;5089520;28;20176;-74
2020/12/08 10:15:33;;;;;;;15.43;13.68;;;;;;;;;;5090900;28;20183;-76
2020/12/08 10:17:59;;;;;;;16.98;14.68;;;;;;;;;;5091508;28;20706;-74
2020/12/08 10:20:26;;;;;;;16.50;14.70;;;;;;;;;;5091548;28;20707;-76
2020/12/08 10:22:52;;;;;;;18.23;13.75;;;;;;;;;;5086972;28;20172;-75
2020/12/08 10:25:18;;;;;;;15.90;13.35;;;;;;;;;;5091132;28;20176;-77
2020/12/08 10:27:44;;;;;;;16.48;14.63;;;;;;;;;;5091429;28;20175;-75
2020/12/08 10:30:11;;;;;;;15.52;14.00;;;;;;;;;;5087957;28;20183;-76
2020/12/08 10:32:37;;;;;;;15.05;13.45;;;;;;;;;;5091231;28;20195;-74
2020/12/08 10:35:03;;;;;;;15.10;13.10;;;;;;;;;;5089118;28;20187;-74
2020/12/08 10:37:29;;;;;;;15.27;13.68;;;;;;;;;;5070857;28;20200;-73
2020/12/08 10:39:55;;;;;;;16.15;14.13;;;;;;;;;;5083838;28;20679;-74
2020/12/08 10:42:21;;;;;;;15.85;14.15;;;;;;;;;;5071184;28;20184;-75
2020/12/08 10:44:47;;;;;;;15.70;14.02;;;;;;;;;;5083016;28;20533;-76
2020/12/08 10:47:13;;;;;;;15.57;13.70;;;;;;;;;;5091042;28;20590;-76
2020/12/08 10:49:39;;;;;;;15.75;14.15;;;;;;;;;;5090115;28;20222;-76
2020/12/08 10:52:05;;;;;;;16.67;14.55;;;;;;;;;;5090882;28;20540;-75
2020/12/08 10:54:31;;;;;;;19.70;15.57;;;;;;;;;;5075072;28;20180;-74
2020/12/08 10:56:57;;;;;;;18.35;16.27;;;;;;;;;;5070723;28;20238;-75
2020/12/08 10:59:23;;;;;;;16.92;15.00;;;;;;;;;;5083830;28;20230;-74
2020/12/08 11:01:50;;;;;;;16.83;15.02;;;;;;;;;;5082389;28;20195;-75
2020/12/08 11:04:16;;;;;;;17.08;15.00;;;;;;;;;;5079275;28;20190;-75
2020/12/08 11:06:45;;;;;;;17.50;15.13;;;;;;;;;;5085945;28;20194;-73
2020/12/08 11:09:11;;;;;;;17.45;15.52;;;;;;;;;;5081278;28;20306;-73
2020/12/08 11:11:37;;;;;;;19.15;15.65;;;;;;;;;;5095433;28;20722;-74
2020/12/08 11:14:03;;;;;;;18.38;15.70;;;;;;;;;;5084732;28;20183;-76
2020/12/08 11:16:29;;;;;;;17.10;15.30;;;;;;;;;;5081475;28;20191;-73
2020/12/08 11:18:56;;;;;;;18.73;15.75;;;;;;;;;;5087385;28;20957;-75
2020/12/08 11:21:24;;;;;;;19.20;16.17;;;;;;;;;;5070578;28;20216;-76
2020/12/08 11:23:50;;;;;;;18.55;16.50;;;;;;;;;;5078927;28;20179;-74
2020/12/08 11:26:16;;;;;;;20.80;17.55;;;;;;;;;;5070410;28;20538;-76
2020/12/08 11:28:43;;;;;;;20.27;18.08;;;;;;;;;;5074214;28;20302;-74
2020/12/08 11:31:09;;;;;;;26.38;21.42;;;;;;;;;;5074241;28;20184;-75
2020/12/08 11:33:35;;;;;;;19.65;16.98;;;;;;;;;;5069562;28;20518;-76
2020/12/08 11:36:01;;;;;;;21.83;17.63;;;;;;;;;;5073465;28;20178;-75
2020/12/08 11:38:27;;;;;;;17.55;15.20;;;;;;;;;;5081518;28;20261;-74
2020/12/08 11:40:53;;;;;;;17.15;15.40;;;;;;;;;;5083975;28;20237;-76
2020/12/08 11:43:20;;;;;;;16.80;15.00;;;;;;;;;;5087053;28;20180;-75
2020/12/08 11:45:46;;;;;;;21.55;16.45;;;;;;;;;;5069375;28;20216;-74
2020/12/08 11:48:13;;;;;;;18.13;16.20;;;;;;;;;;5069717;28;20200;-73
2020/12/08 11:50:39;;;;;;;18.55;16.23;;;;;;;;;;5073921;28;20903;-74
2020/12/08 11:53:05;;;;;;;20.63;15.70;;;;;;;;;;5089728;28;20180;-76
2020/12/08 11:55:31;;;;;;;19.05;17.05;;;;;;;;;;5084494;28;20184;-75
2020/12/08 11:57:57;;;;;;;19.98;17.80;;;;;;;;;;5080386;28;20211;-75
2020/12/08 12:00:23;;;;;;;18.77;16.52;;;;;;;;;;5089536;28;20187;-75
2020/12/08 12:02:49;;;;;;;22.98;19.55;;;;;;;;;;5089713;28;20655;-74
2020/12/08 12:05:15;;;;;;;18.90;16.90;;;;;;;;;;5084301;28;20518;-75
2020/12/08 12:07:41;;;;;;;21.95;17.83;;;;;;;;;;5075579;28;20191;-73
2020/12/08 12:10:07;;;;;;;22.35;17.63;;;;;;;;;;5076438;28;20204;-74
2020/12/08 12:12:33;;;;;;;21.55;17.88;;;;;;;;;;5076831;28;20199;-75
2020/12/08 12:15:00;;;;;;;22.13;17.75;;;;;;;;;;5089357;28;20179;-74
2020/12/08 12:17:26;;;;;;;19.38;17.35;;;;;;;;;;5077988;28;20246;-74
2020/12/08 12:19:52;;;;;;;19.40;17.40;;;;;;;;;;5069079;28;20870;-76
2020/12/08 12:22:18;;;;;;;20.08;17.98;;;;;;;;;;5081652;28;20183;-74
2020/12/08 12:24:44;;;;;;;19.17;17.17;;;;;;;;;;5088443;28;20704;-76
2020/12/08 12:27:10;;;;;;;18.40;16.50;;;;;;;;;;5089362;28;20178;-75
2020/12/08 12:29:36;;;;;;;20.75;18.55;;;;;;;;;;5089470;28;20202;-75
2020/12/08 12:32:02;;;;;;;19.63;17.58;;;;;;;;;;5088945;28;20186;-74
2020/12/08 12:34:28;;;;;;;21.33;18.33;;;;;;;;;;5069885;28;20659;-75
2020/12/08 12:36:55;;;;;;;20.70;18.50;;;;;;;;;;5085441;28;20207;-74
2020/12/08 12:39:21;;;;;;;18.55;16.55;;;;;;;;;;5087248;28;20207;-75
2020/12/08 12:41:47;;;;;;;19.98;17.20;;;;;;;;;;5082047;28;20171;-75
2020/12/08 12:44:13;;;;;;;20.42;17.48;;;;;;;;;;5088760;28;20183;-73
2020/12/08 12:46:39;;;;;;;20.52;18.40;;;;;;;;;;5076141;28;20172;-76
2020/12/08 12:49:05;;;;;;;21.13;18.73;;;;;;;;;;5075524;28;20231;-76
2020/12/08 12:51:31;;;;;;;21.35;18.73;;;;;;;;;;5069050;28;20263;-74
2020/12/08 12:53:58;;;;;;;22.33;19.98;;;;;;;;;;5079345;28;20637;-74
2020/12/08 12:56:25;;;;;;;24.50;21.25;;;;;;;;;;5088672;28;20206;-73
2020/12/08 12:58:51;;;;;;;24.67;20.38;;;;;;;;;;5089015;28;20199;-76
2020/12/08 13:01:18;;;;;;;23.00;19.88;;;;;;;;;;5088710;28;20172;-76
2020/12/08 13:03:44;;;;;;;23.25;20.52;;;;;;;;;;5080389;28;20180;-74
2020/12/08 13:06:14;;;;;;;24.08;19.63;;;;;;;;;;5088140;28;20256;-76
2020/12/08 13:08:41;;;;;;;23.83;20.77;;;;;;;;;;5089054;28;20207;-76
2020/12/08 13:11:08;;;;;;;26.48;22.05;;;;;;;;;;5089449;28;20178;-77
2020/12/08 13:13:34;;;;;;;24.75;21.25;;;;;;;;;;5084460;28;20190;-75
2020/12/08 13:16:01;;;;;;;24.77;21.30;;;;;;;;;;5088963;28;20235;-76
2020/12/08 13:18:27;;;;;;;26.42;22.05;;;;;;;;;;5083273;28;20303;-74
2020/12/08 13:20:54;;;;;;;24.70;21.33;;;;;;;;;;5088196;28;20183;-76
2020/12/08 13:23:20;;;;;;;28.27;23.48;;;;;;;;;;5088819;28;20176;-75
2020/12/08 13:25:46;;;;;;;27.48;22.52;;;;;;;;;;5084049;28;20194;-75
2020/12/08 13:28:13;;;;;;;26.38;21.45;;;;;;;;;;5069893;28;20200;-73
2020/12/08 13:30:39;;;;;;;27.85;22.75;;;;;;;;;;5087982;28;20660;-74
2020/12/08 13:33:05;;;;;;;27.90;22.35;;;;;;;;;;5087313;28;20548;-74
2020/12/08 13:35:34;;;;;;;30.75;23.30;;;;;;;;;;5089345;28;20179;-76
2020/12/08 13:38:00;;;;;;;27.08;21.90;;;;;;;;;;5086937;28;20212;-74
2020/12/08 13:40:26;;;;;;;28.13;22.55;;;;;;;;;;5090728;28;20179;-74
2020/12/08 13:42:52;;;;;;;31.50;24.25;;;;;;;;;;5078442;28;20175;-74
2020/12/08 13:45:18;;;;;;;26.70;22.02;;;;;;;;;;5088665;28;20206;-76
2020/12/08 13:47:44;;;;;;;30.15;23.73;;;;;;;;;;5092128;28;20179;-74
2020/12/08 13:50:12;;;;;;;27.77;23.00;;;;;;;;;;5091421;28;20717;-75
2020/12/08 13:52:38;;;;;;;28.23;23.15;;;;;;;;;;5087799;28;20594;-76
2020/12/08 13:55:04;;;;;;;30.48;22.95;;;;;;;;;;5088330;28;20248;-74
2020/12/08 13:57:31;;;;;;;30.95;22.95;;;;;;;;;;5088100;28;20848;-76
2020/12/08 13:59:57;;;;;;;30.23;22.92;;;;;;;;;;5082569;28;20200;-74
2020/12/08 14:02:23;;;;;;;27.38;22.65;;;;;;;;;;5091657;28;20229;-74
2020/12/08 14:04:49;;;;;;;30.85;24.27;;;;;;;;;;5086949;28;20176;-74
2020/12/08 14:07:18;;;;;;;36.30;25.63;;;;;;;;;;5091665;28;20266;-73
2020/12/08 14:09:44;;;;;;;37.05;26.50;;;;;;;;;;5091190;28;20203;-75
2020/12/08 14:12:10;;;;;;;39.10;27.27;;;;;;;;;;5091510;28;20203;-76
2020/12/08 14:14:36;;;;;;;40.80;28.13;;;;;;;;;;5080353;28;20549;-74
2020/12/08 14:17:02;;;;;;;44.97;28.50;;;;;;;;;;5089096;28;20282;-75